createdAt,value
2019-02-10T00:02:17.360Z,21.37
2019-02-10T00:04:44.783Z,20.50
2019-02-10T00:07:12.203Z,20.50
2019-02-10T00:09:39.625Z,24.37
2019-02-10T00:12:07.080Z,13.00
2019-02-10T00:14:34.530Z,18.10
2019-02-10T00:17:01.953Z,21.47
2019-02-10T00:19:29.401Z,23.07
2019-02-10T00:21:56.803Z,19.77
2019-02-10T00:24:24.244Z,23.47
2019-02-10T00:26:51.663Z,34.73
2019-02-10T00:29:19.092Z,23.07
2019-02-10T00:31:46.540Z,18.07
2019-02-10T00:34:14.222Z,18.40
2019-02-10T00:36:41.676Z,20.07
2019-02-10T00:39:09.098Z,18.13
2019-02-10T00:41:36.540Z,17.23
2019-02-10T00:44:03.961Z,23.87
2019-02-10T00:46:31.408Z,20.27
2019-02-10T00:48:58.816Z,19.17
2019-02-10T00:51:26.255Z,30.10
2019-02-10T00:53:53.678Z,22.37
2019-02-10T00:56:21.089Z,20.87
2019-02-10T00:58:48.519Z,22.47
2019-02-10T01:01:15.927Z,18.93
2019-02-10T01:03:43.365Z,19.60
2019-02-10T01:06:10.791Z,24.63
2019-02-10T01:08:38.221Z,15.57
2019-02-10T01:11:05.642Z,18.43
2019-02-10T01:13:33.072Z,19.97
2019-02-10T01:16:00.492Z,16.20
2019-02-10T01:18:27.920Z,19.97
2019-02-10T01:20:55.322Z,16.80
2019-02-10T01:23:22.750Z,18.13
2019-02-10T01:25:50.158Z,15.13
2019-02-10T01:28:17.572Z,20.40
2019-02-10T01:30:45.024Z,11.17
2019-02-10T01:33:12.427Z,14.10
2019-02-10T01:35:39.872Z,11.30
2019-02-10T01:38:07.285Z,20.50
2019-02-10T01:40:34.711Z,12.90
2019-02-10T01:43:02.147Z,16.53
2019-02-10T01:45:29.549Z,14.80
2019-02-10T01:47:56.954Z,20.40
2019-02-10T01:50:24.382Z,14.57
2019-02-10T01:52:51.791Z,11.17
2019-02-10T01:55:19.231Z,19.77
2019-02-10T01:57:46.658Z,21.63
2019-02-10T02:00:14.124Z,14.90
2019-02-10T02:02:41.540Z,18.67
2019-02-10T02:05:08.955Z,13.63
2019-02-10T02:07:36.402Z,18.53
2019-02-10T02:10:03.815Z,18.63
2019-02-10T02:12:31.241Z,19.23
2019-02-10T02:14:58.673Z,15.03
2019-02-10T02:17:26.099Z,20.33
2019-02-10T02:19:53.530Z,17.80
2019-02-10T02:22:20.945Z,15.13
2019-02-10T02:24:48.381Z,15.43
2019-02-10T02:27:15.795Z,17.73
2019-02-10T02:29:43.230Z,20.27
2019-02-10T02:32:10.646Z,16.87
2019-02-10T02:34:38.080Z,15.93
2019-02-10T02:37:07.963Z,11.03
2019-02-10T02:39:32.918Z,12.53
2019-02-10T02:42:00.360Z,12.80
2019-02-10T02:44:27.785Z,14.17
2019-02-10T02:46:55.195Z,9.73
2019-02-10T02:49:22.613Z,12.33
2019-02-10T02:51:50.019Z,7.70
2019-02-10T02:54:17.479Z,5.93
2019-02-10T02:56:44.855Z,11.80
2019-02-10T02:59:12.306Z,7.80
2019-02-10T03:01:39.715Z,12.97
2019-02-10T03:04:07.161Z,7.23
2019-02-10T03:06:46.511Z,12.03
2019-02-10T03:09:13.936Z,8.23
2019-02-10T03:11:41.360Z,4.27
2019-02-10T03:14:08.781Z,6.93
2019-02-10T03:16:36.201Z,4.67
2019-02-10T03:19:03.620Z,5.80
2019-02-10T03:21:31.059Z,6.23
2019-02-10T03:23:58.467Z,4.87
2019-02-10T03:26:25.858Z,6.33
2019-02-10T03:28:53.298Z,5.50
2019-02-10T03:31:20.714Z,3.60
2019-02-10T03:33:48.124Z,4.73
2019-02-10T03:36:15.531Z,4.37
2019-02-10T03:38:42.941Z,5.30
2019-02-10T03:41:10.339Z,4.27
2019-02-10T03:43:37.772Z,2.63
2019-02-10T03:46:05.192Z,4.23
2019-02-10T03:48:32.615Z,4.80
2019-02-10T03:51:00.015Z,2.97
2019-02-10T03:53:27.453Z,3.87
2019-02-10T03:55:54.866Z,3.53
2019-02-10T03:58:22.273Z,4.70
2019-02-10T04:00:49.718Z,3.53
2019-02-10T04:03:17.148Z,4.10
2019-02-10T04:05:44.573Z,5.67
2019-02-10T04:08:11.973Z,5.23
2019-02-10T04:10:39.406Z,2.03
2019-02-10T04:13:06.847Z,5.93
2019-02-10T04:15:34.258Z,3.83
2019-02-10T04:18:01.659Z,4.37
2019-02-10T04:20:29.091Z,4.13
2019-02-10T04:22:56.501Z,3.07
2019-02-10T04:25:23.933Z,3.03
2019-02-10T04:27:51.343Z,1.77
2019-02-10T04:30:18.775Z,2.87
2019-02-10T04:32:46.200Z,3.37
2019-02-10T04:35:13.625Z,1.70
2019-02-10T04:37:46.042Z,4.17
2019-02-10T04:40:11.343Z,2.93
2019-02-10T04:42:38.767Z,3.30
2019-02-10T04:45:06.171Z,4.50
2019-02-10T04:47:33.609Z,2.50
2019-02-10T04:50:01.006Z,4.23
2019-02-10T04:52:28.418Z,5.53
2019-02-10T04:54:55.837Z,3.57
2019-02-10T04:57:23.497Z,2.27
2019-02-10T04:59:50.915Z,3.13
2019-02-10T05:02:18.317Z,4.00
2019-02-10T05:04:45.745Z,4.33
2019-02-10T05:07:13.156Z,3.17
2019-02-10T05:09:40.605Z,2.90
2019-02-10T05:12:07.982Z,5.83
2019-02-10T05:14:36.532Z,4.67
2019-02-10T05:17:03.998Z,5.40
2019-02-10T05:19:31.395Z,3.37
2019-02-10T05:21:58.822Z,3.83
2019-02-10T05:24:26.222Z,3.37
2019-02-10T05:26:53.670Z,5.33
2019-02-10T05:29:21.087Z,3.73
2019-02-10T05:31:48.491Z,4.70
2019-02-10T05:34:15.927Z,4.70
2019-02-10T05:36:43.366Z,3.00
2019-02-10T05:39:10.769Z,5.10
2019-02-10T05:41:38.168Z,4.27
2019-02-10T05:44:06.395Z,5.47
2019-02-10T05:46:33.829Z,5.33
2019-02-10T05:49:01.224Z,3.33
2019-02-10T05:51:28.632Z,4.00
2019-02-10T05:53:56.076Z,3.63
2019-02-10T05:56:23.494Z,3.83
2019-02-10T05:58:50.913Z,3.10
2019-02-10T06:01:55.531Z,3.53
2019-02-10T06:04:22.952Z,3.30
2019-02-10T06:06:50.357Z,3.43
2019-02-10T06:09:17.793Z,4.27
2019-02-10T06:11:45.209Z,4.30
2019-02-10T06:14:12.897Z,3.50
2019-02-10T06:16:40.311Z,3.57
2019-02-10T06:19:07.778Z,3.00
2019-02-10T06:21:35.186Z,3.63
2019-02-10T06:24:02.596Z,3.40
2019-02-10T06:26:30.012Z,2.93
2019-02-10T06:28:58.720Z,2.53
2019-02-10T06:31:26.144Z,3.33
2019-02-10T06:33:53.634Z,3.70
2019-02-10T06:36:21.041Z,2.33
2019-02-10T06:38:48.481Z,4.20
2019-02-10T06:41:15.917Z,2.83
2019-02-10T06:43:43.353Z,2.63
2019-02-10T06:46:10.788Z,6.30
2019-02-10T06:48:38.471Z,4.07
2019-02-10T06:51:05.893Z,2.40
2019-02-10T06:53:34.766Z,2.43
2019-02-10T06:56:00.736Z,3.33
2019-02-10T06:58:28.170Z,2.53
2019-02-10T07:01:04.164Z,3.13
2019-02-10T07:03:31.802Z,3.07
2019-02-10T07:05:59.242Z,2.70
2019-02-10T07:08:30.601Z,3.07
2019-02-10T07:10:54.071Z,3.17
2019-02-10T07:13:30.451Z,3.90
2019-02-10T07:16:28.783Z,4.10
2019-02-10T07:19:33.165Z,4.40
2019-02-10T07:22:00.843Z,3.77
2019-02-10T07:24:34.174Z,2.50
2019-02-10T07:27:13.415Z,2.43
2019-02-10T07:29:55.886Z,3.53
2019-02-10T07:32:23.308Z,3.17
2019-02-10T07:35:06.242Z,4.43
2019-02-10T07:37:42.244Z,5.17
2019-02-10T07:40:16.438Z,4.20
2019-02-10T07:42:52.391Z,3.90
2019-02-10T07:45:25.447Z,3.70
2019-02-10T07:47:54.624Z,2.60
2019-02-10T07:50:20.280Z,4.00
2019-02-10T07:52:53.529Z,7.50
2019-02-10T07:55:20.971Z,5.90
2019-02-10T07:58:10.033Z,2.87
2019-02-10T08:00:49.276Z,2.63
2019-02-10T08:03:44.242Z,3.37
2019-02-10T08:06:38.498Z,3.77
2019-02-10T08:09:05.914Z,3.50
2019-02-10T08:11:42.226Z,6.10
2019-02-10T08:14:24.596Z,3.70
2019-02-10T08:16:54.835Z,5.20
2019-02-10T08:19:36.882Z,2.67
2019-02-10T08:22:12.895Z,3.53
2019-02-10T08:24:49.294Z,2.90
2019-02-10T08:27:31.497Z,5.10
2019-02-10T08:30:07.167Z,4.00
2019-02-10T08:32:37.233Z,3.63
2019-02-10T08:35:19.652Z,3.83
2019-02-10T08:37:52.632Z,5.43
2019-02-10T08:40:28.776Z,3.97
2019-02-10T08:43:14.265Z,3.17
2019-02-10T08:46:09.018Z,3.47
2019-02-10T08:49:07.158Z,2.60
2019-02-10T08:51:52.948Z,2.13
2019-02-10T08:54:20.354Z,2.90
2019-02-10T08:56:47.778Z,2.07
2019-02-10T08:59:15.206Z,3.57
2019-02-10T09:01:42.647Z,3.23
2019-02-10T09:04:10.043Z,2.83
2019-02-10T09:06:37.503Z,2.50
2019-02-10T09:09:04.939Z,2.87
2019-02-10T09:11:32.353Z,2.03
2019-02-10T09:13:59.789Z,2.60
2019-02-10T09:16:27.188Z,2.73
2019-02-10T09:18:54.594Z,2.10
2019-02-10T09:21:22.025Z,2.03
2019-02-10T09:23:49.437Z,2.70
2019-02-10T09:26:16.860Z,2.97
2019-02-10T09:28:44.257Z,2.93
2019-02-10T09:31:11.706Z,1.80
2019-02-10T09:33:39.112Z,2.60
2019-02-10T09:36:06.535Z,2.20
2019-02-10T09:38:33.957Z,1.70
2019-02-10T09:41:01.371Z,3.80
2019-02-10T09:43:28.795Z,3.23
2019-02-10T09:45:56.201Z,4.53
2019-02-10T09:48:23.648Z,2.03
2019-02-10T09:50:51.058Z,4.30
2019-02-10T09:53:18.544Z,5.17
2019-02-10T09:55:45.952Z,5.37
2019-02-10T09:58:13.373Z,4.80
2019-02-10T10:00:40.809Z,2.93
2019-02-10T10:03:08.215Z,3.17
2019-02-10T10:05:35.901Z,5.23
2019-02-10T10:08:03.312Z,4.93
2019-02-10T10:10:30.762Z,5.13
2019-02-10T10:12:58.187Z,3.80
2019-02-10T10:15:25.627Z,7.73
2019-02-10T10:17:53.040Z,3.40
2019-02-10T10:20:20.493Z,7.30
2019-02-10T10:22:47.904Z,5.33
2019-02-10T10:25:15.346Z,4.60
2019-02-10T10:27:42.789Z,3.97
2019-02-10T10:30:10.208Z,4.50
2019-02-10T10:32:37.628Z,6.53
2019-02-10T10:35:05.030Z,7.37
2019-02-10T10:37:32.477Z,10.07
2019-02-10T10:39:59.889Z,6.83
2019-02-10T10:42:27.285Z,7.57
2019-02-10T10:44:54.710Z,3.47
2019-02-10T10:47:22.121Z,6.70
2019-02-10T10:49:49.545Z,5.40
2019-02-10T10:52:16.981Z,4.23
2019-02-10T10:54:44.401Z,3.77
2019-02-10T10:57:11.833Z,4.90
2019-02-10T10:59:39.243Z,5.10
2019-02-10T11:02:06.648Z,5.33
2019-02-10T11:04:34.080Z,5.63
2019-02-10T11:07:01.477Z,4.10
2019-02-10T11:09:35.420Z,5.00
2019-02-10T11:11:56.296Z,4.10
2019-02-10T11:14:23.747Z,6.77
2019-02-10T11:16:51.145Z,3.83
2019-02-10T11:19:18.570Z,6.23
2019-02-10T11:21:45.986Z,5.10
2019-02-10T11:24:13.378Z,4.07
2019-02-10T11:26:40.811Z,3.10
2019-02-10T11:29:08.219Z,5.87
2019-02-10T11:31:35.648Z,4.07
2019-02-10T11:34:03.042Z,7.23
2019-02-10T11:36:30.475Z,4.07
2019-02-10T11:38:57.873Z,2.53
2019-02-10T11:41:25.310Z,6.07
2019-02-10T11:43:52.717Z,6.03
2019-02-10T11:46:20.126Z,5.83
2019-02-10T11:48:47.550Z,4.60
2019-02-10T11:51:14.976Z,5.33
2019-02-10T11:53:42.454Z,5.30
2019-02-10T11:56:09.850Z,6.43
2019-02-10T11:58:37.272Z,4.30
2019-02-10T12:01:04.721Z,6.97
2019-02-10T12:03:32.127Z,7.93
2019-02-10T12:05:59.568Z,6.83
2019-02-10T12:08:35.343Z,7.07
2019-02-10T12:10:54.382Z,3.83
2019-02-10T12:13:21.810Z,4.73
2019-02-10T12:15:49.214Z,10.00
2019-02-10T12:18:16.651Z,6.33
2019-02-10T12:20:44.084Z,3.90
2019-02-10T12:23:11.487Z,2.77
2019-02-10T12:25:38.929Z,4.33
2019-02-10T12:28:06.327Z,4.40
2019-02-10T12:30:33.752Z,5.70
2019-02-10T12:33:01.180Z,27.57
2019-02-10T12:35:28.572Z,6.20
2019-02-10T12:37:55.992Z,7.77
2019-02-10T12:40:23.395Z,7.30
2019-02-10T12:42:50.820Z,2.63
2019-02-10T12:45:18.246Z,2.83
2019-02-10T12:47:45.645Z,3.07
2019-02-10T12:50:13.096Z,5.97
2019-02-10T12:52:40.506Z,4.83
2019-02-10T12:55:07.909Z,3.43
2019-02-10T12:57:35.334Z,2.37
2019-02-10T13:00:02.765Z,2.47
2019-02-10T13:02:30.191Z,1.67
2019-02-10T13:04:57.595Z,2.00
2019-02-10T13:07:25.003Z,1.67
2019-02-10T13:09:52.431Z,1.93
2019-02-10T13:12:19.827Z,2.13
2019-02-10T13:14:47.255Z,2.73
2019-02-10T13:17:14.675Z,2.23
2019-02-10T13:19:42.127Z,1.37
2019-02-10T13:22:09.526Z,1.33
2019-02-10T13:24:36.967Z,1.90
2019-02-10T13:27:04.374Z,1.60
2019-02-10T13:29:31.796Z,2.77
2019-02-10T13:31:59.196Z,2.10
2019-02-10T13:34:26.639Z,2.17
2019-02-10T13:36:54.066Z,3.90
2019-02-10T13:39:21.482Z,4.03
2019-02-10T13:41:48.401Z,3.37
2019-02-10T13:44:15.810Z,2.40
2019-02-10T13:46:43.222Z,4.00
2019-02-10T13:49:10.652Z,2.47
2019-02-10T13:51:38.068Z,2.97
2019-02-10T13:54:05.465Z,2.10
2019-02-10T13:56:32.900Z,3.13
2019-02-10T13:59:00.334Z,3.07
2019-02-10T14:01:27.745Z,1.87
2019-02-10T14:03:55.170Z,2.40
2019-02-10T14:06:22.583Z,3.87
2019-02-10T14:08:50.008Z,1.57
2019-02-10T14:11:18.330Z,1.43
2019-02-10T14:13:44.844Z,1.57
2019-02-10T14:16:12.307Z,2.13
2019-02-10T14:18:39.726Z,2.90
2019-02-10T14:21:07.159Z,3.00
2019-02-10T14:23:34.651Z,2.37
2019-02-10T14:26:02.085Z,2.30
2019-02-10T14:28:29.506Z,3.03
2019-02-10T14:30:56.917Z,2.03
2019-02-10T14:33:24.336Z,4.67
2019-02-10T14:35:51.761Z,5.23
2019-02-10T14:38:19.192Z,3.93
2019-02-10T14:40:46.599Z,1.93
2019-02-10T14:43:14.026Z,1.93
2019-02-10T14:45:41.446Z,2.43
2019-02-10T14:48:08.887Z,2.33
2019-02-10T14:50:36.319Z,4.67
2019-02-10T14:53:03.725Z,4.53
2019-02-10T14:55:31.124Z,3.57
2019-02-10T14:57:58.586Z,1.73
2019-02-10T15:00:25.972Z,1.57
2019-02-10T15:02:53.381Z,1.67
2019-02-10T15:05:20.838Z,1.90
2019-02-10T15:07:48.280Z,2.00
2019-02-10T15:10:21.438Z,4.00
2019-02-10T15:12:48.903Z,3.73
2019-02-10T15:15:16.351Z,2.87
2019-02-10T15:17:43.865Z,1.93
2019-02-10T15:20:11.399Z,3.17
2019-02-10T15:22:38.792Z,2.20
2019-02-10T15:25:06.247Z,2.23
2019-02-10T15:27:33.687Z,5.80
2019-02-10T15:30:01.106Z,2.83
2019-02-10T15:32:28.507Z,1.93
2019-02-10T15:34:55.935Z,3.83
2019-02-10T15:37:23.363Z,2.40
2019-02-10T15:39:50.808Z,2.03
2019-02-10T15:42:18.204Z,4.03
2019-02-10T15:44:45.804Z,1.60
2019-02-10T15:47:13.049Z,4.43
2019-02-10T15:49:40.456Z,4.80
2019-02-10T15:52:07.913Z,7.97
2019-02-10T15:54:35.334Z,3.77
2019-02-10T15:57:08.529Z,3.20
2019-02-10T15:59:30.453Z,5.10
2019-02-10T16:01:57.872Z,3.23
2019-02-10T16:04:26.460Z,2.20
2019-02-10T16:06:52.804Z,4.57
2019-02-10T16:09:20.214Z,4.00
2019-02-10T16:11:47.646Z,2.07
2019-02-10T16:14:15.064Z,2.57
2019-02-10T16:16:42.493Z,5.47
2019-02-10T16:19:09.932Z,2.70
2019-02-10T16:21:37.452Z,3.60
2019-02-10T16:24:04.818Z,3.90
2019-02-10T16:26:32.224Z,3.13
2019-02-10T16:28:59.668Z,3.27
2019-02-10T16:31:27.070Z,2.57
2019-02-10T16:33:54.521Z,4.80
2019-02-10T16:36:21.930Z,4.17
2019-02-10T16:38:49.383Z,3.90
2019-02-10T16:41:16.824Z,2.87
2019-02-10T16:43:44.223Z,3.50
2019-02-10T16:46:11.685Z,6.50
2019-02-10T16:48:39.143Z,2.93
2019-02-10T16:51:06.586Z,4.50
2019-02-10T16:53:34.017Z,6.27
2019-02-10T16:56:01.407Z,4.40
2019-02-10T16:58:28.813Z,2.40
2019-02-10T17:00:56.255Z,2.37
2019-02-10T17:03:23.663Z,3.60
2019-02-10T17:05:51.060Z,2.77
2019-02-10T17:08:18.507Z,7.07
2019-02-10T17:10:45.918Z,8.47
2019-02-10T17:13:13.362Z,6.43
2019-02-10T17:15:40.766Z,5.20
2019-02-10T17:18:08.258Z,4.87
2019-02-10T17:20:35.699Z,7.63
2019-02-10T17:23:03.151Z,9.70
2019-02-10T17:25:30.686Z,8.13
2019-02-10T17:27:58.151Z,4.77
2019-02-10T17:30:25.594Z,5.27
2019-02-10T17:32:53.011Z,7.10
2019-02-10T17:35:20.499Z,5.43
2019-02-10T17:37:47.938Z,5.37
2019-02-10T17:40:15.379Z,6.40
2019-02-10T17:42:42.780Z,5.43
2019-02-10T17:45:10.190Z,4.93
2019-02-10T17:47:37.637Z,3.10
2019-02-10T17:50:05.051Z,3.40
2019-02-10T17:52:32.458Z,4.27
2019-02-10T17:54:59.895Z,4.73
2019-02-10T17:57:27.356Z,6.10
2019-02-10T17:59:54.792Z,4.63
2019-02-10T18:02:22.161Z,4.57
2019-02-10T18:04:49.576Z,3.87
2019-02-10T18:07:17.006Z,4.83
2019-02-10T18:09:44.445Z,2.57
2019-02-10T18:12:11.889Z,3.13
2019-02-10T18:14:41.761Z,2.70
2019-02-10T18:17:12.030Z,3.57
2019-02-10T18:19:39.428Z,3.93
2019-02-10T18:22:24.936Z,4.17
2019-02-10T18:24:52.337Z,6.87
2019-02-10T18:27:25.458Z,5.97
2019-02-10T18:30:01.656Z,4.00
2019-02-10T18:32:32.122Z,4.90
2019-02-10T18:35:02.173Z,4.13
2019-02-10T18:37:47.667Z,3.80
2019-02-10T18:40:33.426Z,8.17
2019-02-10T18:43:20.421Z,4.60
2019-02-10T18:45:59.771Z,6.37
2019-02-10T18:48:36.161Z,4.70
2019-02-10T18:51:06.486Z,4.13
2019-02-10T18:53:36.723Z,5.10
2019-02-10T18:56:04.142Z,8.00
2019-02-10T18:58:31.573Z,6.30
2019-02-10T19:01:17.055Z,7.13
2019-02-10T19:04:02.751Z,4.53
2019-02-10T19:06:30.180Z,3.73
2019-02-10T19:09:03.795Z,3.93
2019-02-10T19:11:47.443Z,4.93
2019-02-10T19:14:13.528Z,7.90
2019-02-10T19:16:43.884Z,5.93
2019-02-10T19:19:32.494Z,6.97
2019-02-10T19:22:02.858Z,3.20
2019-02-10T19:24:33.217Z,4.37
2019-02-10T19:27:06.232Z,6.80
2019-02-10T19:29:36.514Z,11.47
2019-02-10T19:32:15.737Z,3.87
2019-02-10T19:35:01.298Z,7.77
2019-02-10T19:37:31.499Z,6.50
2019-02-10T19:40:01.514Z,7.87
2019-02-10T19:42:34.647Z,10.83
2019-02-10T19:45:14.043Z,13.73
2019-02-10T19:47:41.487Z,14.00
2019-02-10T19:50:09.024Z,12.53
2019-02-10T19:52:39.420Z,13.37
2019-02-10T19:55:06.848Z,12.10
2019-02-10T19:57:49.398Z,9.77
2019-02-10T20:00:19.527Z,13.93
2019-02-10T20:02:49.831Z,11.57
2019-02-10T20:05:17.257Z,13.13
2019-02-10T20:07:44.693Z,10.83
2019-02-10T20:10:14.896Z,14.27
2019-02-10T20:12:45.049Z,16.40
2019-02-10T20:15:15.133Z,18.47
2019-02-10T20:17:42.534Z,12.97
2019-02-10T20:20:28.259Z,14.13
2019-02-10T20:23:07.779Z,11.53
2019-02-10T20:25:40.756Z,14.23
2019-02-10T20:28:14.195Z,14.57
2019-02-10T20:30:44.138Z,16.40
2019-02-10T20:33:20.367Z,18.17
2019-02-10T20:35:54.002Z,15.60
2019-02-10T20:38:21.471Z,14.97
2019-02-10T20:41:07.214Z,13.70
2019-02-10T20:43:37.361Z,13.87
2019-02-10T20:46:04.880Z,13.53
2019-02-10T20:48:50.243Z,15.27
2019-02-10T20:51:20.538Z,17.93
2019-02-10T20:53:47.993Z,16.60
2019-02-10T20:56:15.459Z,17.33
2019-02-10T20:58:45.850Z,16.40
2019-02-10T21:01:25.513Z,16.30
2019-02-10T21:04:01.944Z,16.77
2019-02-10T21:06:41.468Z,10.97
2019-02-10T21:09:24.059Z,15.60
2019-02-10T21:11:51.522Z,12.63
2019-02-10T21:14:18.920Z,18.43
2019-02-10T21:16:46.396Z,13.17
2019-02-10T21:19:13.794Z,12.40
2019-02-10T21:21:43.874Z,9.87
2019-02-10T21:24:13.770Z,17.50
2019-02-10T21:26:50.286Z,13.93
2019-02-10T21:29:20.235Z,11.47
2019-02-10T21:31:53.499Z,16.10
2019-02-10T21:34:20.919Z,15.80
2019-02-10T21:36:51.087Z,13.43
2019-02-10T21:39:21.394Z,13.43
2019-02-10T21:42:03.971Z,16.20
2019-02-10T21:44:34.402Z,15.27
2019-02-10T21:47:01.829Z,12.53
2019-02-10T21:49:29.256Z,10.40
2019-02-10T21:51:56.688Z,16.13
2019-02-10T21:54:24.166Z,8.93
2019-02-10T21:56:51.659Z,14.70
2019-02-10T21:59:19.088Z,12.53
2019-02-10T22:01:46.564Z,10.77
2019-02-10T22:04:13.985Z,10.67
2019-02-10T22:06:41.487Z,13.43
2019-02-10T22:09:08.898Z,11.10
2019-02-10T22:11:36.322Z,13.43
2019-02-10T22:14:03.814Z,15.83
2019-02-10T22:16:31.245Z,13.27
2019-02-10T22:18:58.634Z,13.70
2019-02-10T22:21:26.089Z,16.77
2019-02-10T22:23:53.508Z,11.07
2019-02-10T22:26:20.927Z,17.93
2019-02-10T22:28:48.407Z,17.10
2019-02-10T22:31:18.866Z,15.53
2019-02-10T22:33:51.185Z,13.00
2019-02-10T22:36:10.696Z,19.97
2019-02-10T22:38:38.107Z,11.60
2019-02-10T22:41:05.523Z,11.40
2019-02-10T22:43:32.949Z,13.27
2019-02-10T22:46:00.363Z,10.90
2019-02-10T22:48:27.842Z,12.03
2019-02-10T22:50:55.298Z,10.30
2019-02-10T22:53:22.711Z,15.53
2019-02-10T22:55:50.286Z,15.10
2019-02-10T22:58:17.622Z,13.37
2019-02-10T23:00:50.683Z,11.23
2019-02-10T23:03:18.080Z,10.47
2019-02-10T23:05:45.509Z,12.80
2019-02-10T23:08:12.933Z,12.57
2019-02-10T23:10:40.333Z,10.77
2019-02-10T23:13:07.746Z,12.23
2019-02-10T23:15:35.147Z,12.87
2019-02-10T23:18:02.631Z,9.00
2019-02-10T23:20:30.079Z,10.10
2019-02-10T23:22:57.537Z,12.97
2019-02-10T23:25:24.908Z,8.27
2019-02-10T23:27:52.338Z,16.67
2019-02-10T23:30:19.780Z,13.47
2019-02-10T23:32:47.321Z,12.13
2019-02-10T23:35:14.738Z,13.33
2019-02-10T23:37:42.199Z,11.30
2019-02-10T23:40:09.687Z,14.60
2019-02-10T23:42:37.098Z,14.23
2019-02-10T23:45:04.505Z,9.63
2019-02-10T23:47:31.900Z,10.70
2019-02-10T23:49:59.321Z,10.47
2019-02-10T23:52:26.739Z,12.13
2019-02-10T23:54:54.181Z,12.87
2019-02-10T23:57:21.647Z,11.07
2019-02-10T23:59:49.050Z,10.93
